sensor_id;sensor_type;location;lat;lon;timestamp;pressure;altitude;pressure_sealevel;temperature
19644;BMP180;9970;-36.854;174.870;2023-05-10T00:01:46;99266.00;;;18.60
19644;BMP180;9970;-36.854;174.870;2023-05-10T00:04:19;99285.00;;;18.60
19644;BMP180;9970;-36.854;174.870;2023-05-10T00:06:53;99269.00;;;18.60
19644;BMP180;9970;-36.854;174.870;2023-05-10T00:09:25;99274.00;;;18.60
19644;BMP180;9970;-36.854;174.870;2023-05-10T00:11:59;99285.00;;;18.70
19644;BMP180;9970;-36.854;174.870;2023-05-10T00:14:32;99281.00;;;18.70
19644;BMP180;9970;-36.854;174.870;2023-05-10T00:17:05;99282.00;;;18.60
19644;BMP180;9970;-36.854;174.870;2023-05-10T00:19:38;99291.00;;;18.60
19644;BMP180;9970;-36.854;174.870;2023-05-10T00:22:11;99291.00;;;18.60
19644;BMP180;9970;-36.854;174.870;2023-05-10T00:24:44;99284.00;;;18.60
19644;BMP180;9970;-36.854;174.870;2023-05-10T00:27:17;99297.00;;;18.50
19644;BMP180;9970;-36.854;174.870;2023-05-10T00:29:50;99295.00;;;18.50
19644;BMP180;9970;-36.854;174.870;2023-05-10T00:32:23;99287.00;;;18.50
19644;BMP180;9970;-36.854;174.870;2023-05-10T00:34:56;99276.00;;;18.40
19644;BMP180;9970;-36.854;174.870;2023-05-10T00:37:29;99281.00;;;18.40
19644;BMP180;9970;-36.854;174.870;2023-05-10T00:40:02;99273.00;;;18.40
19644;BMP180;9970;-36.854;174.870;2023-05-10T00:42:36;99280.00;;;18.40
19644;BMP180;9970;-36.854;174.870;2023-05-10T00:45:09;99278.00;;;18.30
19644;BMP180;9970;-36.854;174.870;2023-05-10T00:47:42;99283.00;;;18.30
19644;BMP180;9970;-36.854;174.870;2023-05-10T00:50:15;99298.00;;;18.30
19644;BMP180;9970;-36.854;174.870;2023-05-10T00:52:49;99316.00;;;18.30
19644;BMP180;9970;-36.854;174.870;2023-05-10T00:55:22;99324.00;;;18.30
19644;BMP180;9970;-36.854;174.870;2023-05-10T00:57:55;99326.00;;;18.20
19644;BMP180;9970;-36.854;174.870;2023-05-10T01:00:28;99339.00;;;18.20
19644;BMP180;9970;-36.854;174.870;2023-05-10T01:03:01;99334.00;;;18.10
19644;BMP180;9970;-36.854;174.870;2023-05-10T01:05:35;99330.00;;;18.10
19644;BMP180;9970;-36.854;174.870;2023-05-10T01:08:08;99338.00;;;18.10
19644;BMP180;9970;-36.854;174.870;2023-05-10T01:10:41;99339.00;;;18.10
19644;BMP180;9970;-36.854;174.870;2023-05-10T01:13:23;99348.00;;;18.10
19644;BMP180;9970;-36.854;174.870;2023-05-10T01:15:53;99359.00;;;18.10
19644;BMP180;9970;-36.854;174.870;2023-05-10T01:18:28;99371.00;;;18.10
19644;BMP180;9970;-36.854;174.870;2023-05-10T01:33:20;99390.00;;;17.90
19644;BMP180;9970;-36.854;174.870;2023-05-10T01:38:37;99399.00;;;17.90
19644;BMP180;9970;-36.854;174.870;2023-05-10T01:41:30;99417.00;;;17.80
19644;BMP180;9970;-36.854;174.870;2023-05-10T01:44:01;99403.00;;;17.80
19644;BMP180;9970;-36.854;174.870;2023-05-10T01:46:38;99401.00;;;17.80
19644;BMP180;9970;-36.854;174.870;2023-05-10T01:49:15;99394.00;;;17.80
19644;BMP180;9970;-36.854;174.870;2023-05-10T01:51:52;99404.00;;;17.70
19644;BMP180;9970;-36.854;174.870;2023-05-10T01:54:25;99413.00;;;17.70
19644;BMP180;9970;-36.854;174.870;2023-05-10T01:57:03;99400.00;;;17.70
19644;BMP180;9970;-36.854;174.870;2023-05-10T01:59:37;99404.00;;;17.70
19644;BMP180;9970;-36.854;174.870;2023-05-10T02:02:13;99403.00;;;17.70
19644;BMP180;9970;-36.854;174.870;2023-05-10T02:04:46;99417.00;;;17.80
19644;BMP180;9970;-36.854;174.870;2023-05-10T02:07:20;99407.00;;;17.70
19644;BMP180;9970;-36.854;174.870;2023-05-10T02:09:54;99411.00;;;17.70
19644;BMP180;9970;-36.854;174.870;2023-05-10T02:12:28;99432.00;;;17.70
19644;BMP180;9970;-36.854;174.870;2023-05-10T02:15:04;99441.00;;;17.60
19644;BMP180;9970;-36.854;174.870;2023-05-10T02:17:38;99442.00;;;17.50
19644;BMP180;9970;-36.854;174.870;2023-05-10T02:20:12;99426.00;;;17.50
19644;BMP180;9970;-36.854;174.870;2023-05-10T02:22:48;99433.00;;;17.40
19644;BMP180;9970;-36.854;174.870;2023-05-10T02:25:25;99449.00;;;17.40
19644;BMP180;9970;-36.854;174.870;2023-05-10T02:27:59;99450.00;;;17.40
19644;BMP180;9970;-36.854;174.870;2023-05-10T02:30:34;99448.00;;;17.40
19644;BMP180;9970;-36.854;174.870;2023-05-10T02:33:07;99456.00;;;17.40
19644;BMP180;9970;-36.854;174.870;2023-05-10T02:35:40;99457.00;;;17.40
19644;BMP180;9970;-36.854;174.870;2023-05-10T02:38:16;99460.00;;;17.40
19644;BMP180;9970;-36.854;174.870;2023-05-10T02:40:51;99464.00;;;17.40
19644;BMP180;9970;-36.854;174.870;2023-05-10T02:43:28;99456.00;;;17.40
19644;BMP180;9970;-36.854;174.870;2023-05-10T02:46:02;99479.00;;;17.40
19644;BMP180;9970;-36.854;174.870;2023-05-10T02:48:35;99478.00;;;17.40
19644;BMP180;9970;-36.854;174.870;2023-05-10T02:51:09;99477.00;;;17.40
19644;BMP180;9970;-36.854;174.870;2023-05-10T02:53:44;99476.00;;;17.30
19644;BMP180;9970;-36.854;174.870;2023-05-10T02:57:04;99492.00;;;17.30
19644;BMP180;9970;-36.854;174.870;2023-05-10T02:58:58;99491.00;;;17.20
19644;BMP180;9970;-36.854;174.870;2023-05-10T03:01:31;99491.00;;;17.10
19644;BMP180;9970;-36.854;174.870;2023-05-10T03:04:04;99489.00;;;17.10
19644;BMP180;9970;-36.854;174.870;2023-05-10T03:06:38;99485.00;;;17.00
19644;BMP180;9970;-36.854;174.870;2023-05-10T03:09:11;99475.00;;;17.00
19644;BMP180;9970;-36.854;174.870;2023-05-10T03:11:55;99482.00;;;16.90
19644;BMP180;9970;-36.854;174.870;2023-05-10T03:14:41;99482.00;;;17.00
19644;BMP180;9970;-36.854;174.870;2023-05-10T03:17:25;99476.00;;;16.90
19644;BMP180;9970;-36.854;174.870;2023-05-10T03:19:58;99480.00;;;17.00
19644;BMP180;9970;-36.854;174.870;2023-05-10T03:25:36;99480.00;;;17.00
19644;BMP180;9970;-36.854;174.870;2023-05-10T03:28:06;99483.00;;;16.90
19644;BMP180;9970;-36.854;174.870;2023-05-10T03:30:40;99488.00;;;16.90
19644;BMP180;9970;-36.854;174.870;2023-05-10T03:33:13;99482.00;;;16.90
19644;BMP180;9970;-36.854;174.870;2023-05-10T03:35:46;99473.00;;;16.90
19644;BMP180;9970;-36.854;174.870;2023-05-10T03:38:19;99475.00;;;16.90
19644;BMP180;9970;-36.854;174.870;2023-05-10T03:40:51;99471.00;;;16.90
19644;BMP180;9970;-36.854;174.870;2023-05-10T03:43:24;99479.00;;;16.90
19644;BMP180;9970;-36.854;174.870;2023-05-10T03:45:57;99476.00;;;16.80
19644;BMP180;9970;-36.854;174.870;2023-05-10T03:48:30;99479.00;;;16.80
19644;BMP180;9970;-36.854;174.870;2023-05-10T03:51:03;99477.00;;;16.80
19644;BMP180;9970;-36.854;174.870;2023-05-10T03:53:36;99484.00;;;16.70
19644;BMP180;9970;-36.854;174.870;2023-05-10T03:56:09;99489.00;;;16.70
19644;BMP180;9970;-36.854;174.870;2023-05-10T03:58:41;99489.00;;;16.70
19644;BMP180;9970;-36.854;174.870;2023-05-10T04:01:14;99498.00;;;16.60
19644;BMP180;9970;-36.854;174.870;2023-05-10T04:03:47;99489.00;;;16.60
19644;BMP180;9970;-36.854;174.870;2023-05-10T04:06:20;99507.00;;;16.50
19644;BMP180;9970;-36.854;174.870;2023-05-10T04:08:53;99502.00;;;16.40
19644;BMP180;9970;-36.854;174.870;2023-05-10T04:11:26;99504.00;;;16.40
19644;BMP180;9970;-36.854;174.870;2023-05-10T04:13:59;99519.00;;;16.40
19644;BMP180;9970;-36.854;174.870;2023-05-10T04:16:32;99512.00;;;16.40
19644;BMP180;9970;-36.854;174.870;2023-05-10T04:19:05;99509.00;;;16.30
19644;BMP180;9970;-36.854;174.870;2023-05-10T04:21:38;99512.00;;;16.30
19644;BMP180;9970;-36.854;174.870;2023-05-10T04:24:11;99529.00;;;16.20
19644;BMP180;9970;-36.854;174.870;2023-05-10T04:26:44;99521.00;;;16.10
19644;BMP180;9970;-36.854;174.870;2023-05-10T04:29:17;99516.00;;;16.00
19644;BMP180;9970;-36.854;174.870;2023-05-10T04:31:50;99524.00;;;15.90
19644;BMP180;9970;-36.854;174.870;2023-05-10T04:34:23;99534.00;;;15.80
19644;BMP180;9970;-36.854;174.870;2023-05-10T04:36:56;99536.00;;;15.80
19644;BMP180;9970;-36.854;174.870;2023-05-10T04:39:29;99541.00;;;15.70
19644;BMP180;9970;-36.854;174.870;2023-05-10T04:42:02;99545.00;;;15.70
19644;BMP180;9970;-36.854;174.870;2023-05-10T04:44:36;99562.00;;;15.60
19644;BMP180;9970;-36.854;174.870;2023-05-10T04:47:09;99562.00;;;15.60
19644;BMP180;9970;-36.854;174.870;2023-05-10T04:49:46;99560.00;;;15.50
19644;BMP180;9970;-36.854;174.870;2023-05-10T04:52:19;99560.00;;;15.50
19644;BMP180;9970;-36.854;174.870;2023-05-10T04:54:52;99550.00;;;15.40
19644;BMP180;9970;-36.854;174.870;2023-05-10T04:57:25;99556.00;;;15.40
19644;BMP180;9970;-36.854;174.870;2023-05-10T04:59:59;99563.00;;;15.30
19644;BMP180;9970;-36.854;174.870;2023-05-10T05:02:32;99547.00;;;15.20
19644;BMP180;9970;-36.854;174.870;2023-05-10T05:05:06;99560.00;;;15.20
19644;BMP180;9970;-36.854;174.870;2023-05-10T05:07:39;99557.00;;;15.10
19644;BMP180;9970;-36.854;174.870;2023-05-10T05:10:12;99568.00;;;15.00
19644;BMP180;9970;-36.854;174.870;2023-05-10T05:12:45;99555.00;;;15.00
19644;BMP180;9970;-36.854;174.870;2023-05-10T05:15:19;99574.00;;;15.00
19644;BMP180;9970;-36.854;174.870;2023-05-10T05:17:51;99590.00;;;14.90
19644;BMP180;9970;-36.854;174.870;2023-05-10T05:20:24;99589.00;;;14.90
19644;BMP180;9970;-36.854;174.870;2023-05-10T05:22:57;99587.00;;;14.80
19644;BMP180;9970;-36.854;174.870;2023-05-10T05:25:36;99577.00;;;14.80
19644;BMP180;9970;-36.854;174.870;2023-05-10T05:28:09;99578.00;;;14.80
19644;BMP180;9970;-36.854;174.870;2023-05-10T05:30:42;99564.00;;;14.80
19644;BMP180;9970;-36.854;174.870;2023-05-10T05:33:15;99565.00;;;14.70
19644;BMP180;9970;-36.854;174.870;2023-05-10T05:35:48;99568.00;;;14.70
19644;BMP180;9970;-36.854;174.870;2023-05-10T05:38:21;99560.00;;;14.70
19644;BMP180;9970;-36.854;174.870;2023-05-10T05:40:54;99578.00;;;14.60
19644;BMP180;9970;-36.854;174.870;2023-05-10T05:43:27;99578.00;;;14.60
19644;BMP180;9970;-36.854;174.870;2023-05-10T05:46:01;99595.00;;;14.60
19644;BMP180;9970;-36.854;174.870;2023-05-10T05:48:34;99586.00;;;14.60
19644;BMP180;9970;-36.854;174.870;2023-05-10T05:51:07;99587.00;;;14.60
19644;BMP180;9970;-36.854;174.870;2023-05-10T05:53:40;99595.00;;;14.60
19644;BMP180;9970;-36.854;174.870;2023-05-10T05:56:13;99630.00;;;14.60
19644;BMP180;9970;-36.854;174.870;2023-05-10T05:58:46;99626.00;;;14.60
19644;BMP180;9970;-36.854;174.870;2023-05-10T06:01:18;99623.00;;;14.60
19644;BMP180;9970;-36.854;174.870;2023-05-10T06:03:55;99620.00;;;14.60
19644;BMP180;9970;-36.854;174.870;2023-05-10T06:06:29;99631.00;;;14.50
19644;BMP180;9970;-36.854;174.870;2023-05-10T06:09:03;99628.00;;;14.50
19644;BMP180;9970;-36.854;174.870;2023-05-10T06:11:36;99612.00;;;14.40
19644;BMP180;9970;-36.854;174.870;2023-05-10T06:14:11;99617.00;;;14.40
19644;BMP180;9970;-36.854;174.870;2023-05-10T06:16:44;99618.00;;;14.40
19644;BMP180;9970;-36.854;174.870;2023-05-10T06:19:17;99619.00;;;14.40
19644;BMP180;9970;-36.854;174.870;2023-05-10T06:21:50;99613.00;;;14.40
19644;BMP180;9970;-36.854;174.870;2023-05-10T06:24:23;99629.00;;;14.40
19644;BMP180;9970;-36.854;174.870;2023-05-10T06:26:57;99621.00;;;14.40
19644;BMP180;9970;-36.854;174.870;2023-05-10T06:29:31;99610.00;;;14.40
19644;BMP180;9970;-36.854;174.870;2023-05-10T06:32:04;99627.00;;;14.40
19644;BMP180;9970;-36.854;174.870;2023-05-10T06:34:37;99622.00;;;14.40
19644;BMP180;9970;-36.854;174.870;2023-05-10T06:37:10;99627.00;;;14.40
19644;BMP180;9970;-36.854;174.870;2023-05-10T06:39:43;99625.00;;;14.40
19644;BMP180;9970;-36.854;174.870;2023-05-10T06:42:16;99633.00;;;14.30
19644;BMP180;9970;-36.854;174.870;2023-05-10T06:44:51;99640.00;;;14.30
19644;BMP180;9970;-36.854;174.870;2023-05-10T06:47:25;99627.00;;;14.30
19644;BMP180;9970;-36.854;174.870;2023-05-10T06:49:57;99636.00;;;14.30
19644;BMP180;9970;-36.854;174.870;2023-05-10T06:52:30;99634.00;;;14.30
19644;BMP180;9970;-36.854;174.870;2023-05-10T06:55:04;99622.00;;;14.30
19644;BMP180;9970;-36.854;174.870;2023-05-10T06:57:37;99636.00;;;14.30
19644;BMP180;9970;-36.854;174.870;2023-05-10T07:00:11;99639.00;;;14.30
19644;BMP180;9970;-36.854;174.870;2023-05-10T07:02:44;99648.00;;;14.20
19644;BMP180;9970;-36.854;174.870;2023-05-10T07:05:18;99657.00;;;14.20
19644;BMP180;9970;-36.854;174.870;2023-05-10T07:07:51;99657.00;;;14.20
19644;BMP180;9970;-36.854;174.870;2023-05-10T07:10:24;99652.00;;;14.20
19644;BMP180;9970;-36.854;174.870;2023-05-10T07:12:57;99657.00;;;14.20
19644;BMP180;9970;-36.854;174.870;2023-05-10T07:15:31;99661.00;;;14.20
19644;BMP180;9970;-36.854;174.870;2023-05-10T07:18:04;99664.00;;;14.20
19644;BMP180;9970;-36.854;174.870;2023-05-10T07:20:37;99656.00;;;14.20
19644;BMP180;9970;-36.854;174.870;2023-05-10T07:23:10;99663.00;;;14.20
19644;BMP180;9970;-36.854;174.870;2023-05-10T07:25:50;99656.00;;;14.20
19644;BMP180;9970;-36.854;174.870;2023-05-10T07:28:25;99653.00;;;14.20
19644;BMP180;9970;-36.854;174.870;2023-05-10T07:30:58;99648.00;;;14.20
19644;BMP180;9970;-36.854;174.870;2023-05-10T07:33:31;99655.00;;;14.20
19644;BMP180;9970;-36.854;174.870;2023-05-10T07:36:04;99658.00;;;14.20
19644;BMP180;9970;-36.854;174.870;2023-05-10T07:38:37;99651.00;;;14.20
19644;BMP180;9970;-36.854;174.870;2023-05-10T07:41:11;99657.00;;;14.20
19644;BMP180;9970;-36.854;174.870;2023-05-10T07:43:44;99652.00;;;14.20
19644;BMP180;9970;-36.854;174.870;2023-05-10T07:46:17;99655.00;;;14.20
19644;BMP180;9970;-36.854;174.870;2023-05-10T07:48:50;99661.00;;;14.10
19644;BMP180;9970;-36.854;174.870;2023-05-10T07:51:24;99654.00;;;14.10
19644;BMP180;9970;-36.854;174.870;2023-05-10T07:53:57;99659.00;;;14.10
19644;BMP180;9970;-36.854;174.870;2023-05-10T07:56:31;99677.00;;;14.10
19644;BMP180;9970;-36.854;174.870;2023-05-10T07:59:04;99675.00;;;14.10
19644;BMP180;9970;-36.854;174.870;2023-05-10T08:01:38;99675.00;;;14.00
19644;BMP180;9970;-36.854;174.870;2023-05-10T08:04:13;99681.00;;;14.00
19644;BMP180;9970;-36.854;174.870;2023-05-10T08:06:47;99685.00;;;14.00
19644;BMP180;9970;-36.854;174.870;2023-05-10T08:09:20;99681.00;;;14.00
19644;BMP180;9970;-36.854;174.870;2023-05-10T08:11:54;99695.00;;;14.00
19644;BMP180;9970;-36.854;174.870;2023-05-10T08:14:28;99694.00;;;13.90
19644;BMP180;9970;-36.854;174.870;2023-05-10T08:17:01;99688.00;;;13.90
19644;BMP180;9970;-36.854;174.870;2023-05-10T08:19:34;99693.00;;;13.80
19644;BMP180;9970;-36.854;174.870;2023-05-10T08:22:13;99704.00;;;13.80
19644;BMP180;9970;-36.854;174.870;2023-05-10T08:24:46;99697.00;;;13.70
19644;BMP180;9970;-36.854;174.870;2023-05-10T08:27:19;99687.00;;;13.70
19644;BMP180;9970;-36.854;174.870;2023-05-10T08:29:53;99683.00;;;13.70
19644;BMP180;9970;-36.854;174.870;2023-05-10T08:32:26;99686.00;;;13.70
19644;BMP180;9970;-36.854;174.870;2023-05-10T08:34:59;99678.00;;;13.70
19644;BMP180;9970;-36.854;174.870;2023-05-10T08:37:32;99674.00;;;13.70
19644;BMP180;9970;-36.854;174.870;2023-05-10T08:40:05;99677.00;;;13.60
19644;BMP180;9970;-36.854;174.870;2023-05-10T08:42:40;99663.00;;;13.60
19644;BMP180;9970;-36.854;174.870;2023-05-10T08:45:14;99673.00;;;13.60
19644;BMP180;9970;-36.854;174.870;2023-05-10T08:47:49;99695.00;;;13.60
19644;BMP180;9970;-36.854;174.870;2023-05-10T08:50:22;99690.00;;;13.60
19644;BMP180;9970;-36.854;174.870;2023-05-10T08:53:03;99697.00;;;13.60
19644;BMP180;9970;-36.854;174.870;2023-05-10T08:55:31;99689.00;;;13.60
19644;BMP180;9970;-36.854;174.870;2023-05-10T08:58:04;99753.00;;;13.60
19644;BMP180;9970;-36.854;174.870;2023-05-10T09:00:38;99750.00;;;13.50
19644;BMP180;9970;-36.854;174.870;2023-05-10T09:03:10;99764.00;;;13.50
19644;BMP180;9970;-36.854;174.870;2023-05-10T09:05:44;99769.00;;;13.60
19644;BMP180;9970;-36.854;174.870;2023-05-10T09:08:17;99781.00;;;13.50
19644;BMP180;9970;-36.854;174.870;2023-05-10T09:10:50;99831.00;;;13.60
19644;BMP180;9970;-36.854;174.870;2023-05-10T09:13:23;99831.00;;;13.60
19644;BMP180;9970;-36.854;174.870;2023-05-10T09:15:57;99797.00;;;13.50
19644;BMP180;9970;-36.854;174.870;2023-05-10T09:18:31;99800.00;;;13.50
19644;BMP180;9970;-36.854;174.870;2023-05-10T09:21:08;99808.00;;;13.40
19644;BMP180;9970;-36.854;174.870;2023-05-10T09:23:43;99811.00;;;13.30
19644;BMP180;9970;-36.854;174.870;2023-05-10T09:26:17;99804.00;;;13.20
19644;BMP180;9970;-36.854;174.870;2023-05-10T09:28:56;99801.00;;;13.20
19644;BMP180;9970;-36.854;174.870;2023-05-10T09:31:50;99791.00;;;13.10
19644;BMP180;9970;-36.854;174.870;2023-05-10T09:34:30;99777.00;;;13.10
19644;BMP180;9970;-36.854;174.870;2023-05-10T09:37:03;99788.00;;;13.10
19644;BMP180;9970;-36.854;174.870;2023-05-10T09:39:37;99771.00;;;13.10
19644;BMP180;9970;-36.854;174.870;2023-05-10T09:42:10;99756.00;;;13.10
19644;BMP180;9970;-36.854;174.870;2023-05-10T09:44:43;99744.00;;;13.00
19644;BMP180;9970;-36.854;174.870;2023-05-10T09:47:20;99702.00;;;13.00
19644;BMP180;9970;-36.854;174.870;2023-05-10T09:49:53;99703.00;;;13.00
19644;BMP180;9970;-36.854;174.870;2023-05-10T09:52:45;99710.00;;;13.00
19644;BMP180;9970;-36.854;174.870;2023-05-10T09:55:06;99723.00;;;13.00
19644;BMP180;9970;-36.854;174.870;2023-05-10T09:57:39;99731.00;;;13.00
19644;BMP180;9970;-36.854;174.870;2023-05-10T10:00:17;99738.00;;;13.00
19644;BMP180;9970;-36.854;174.870;2023-05-10T10:02:58;99743.00;;;13.00
19644;BMP180;9970;-36.854;174.870;2023-05-10T10:05:31;99761.00;;;13.00
19644;BMP180;9970;-36.854;174.870;2023-05-10T10:08:05;99767.00;;;13.00
19644;BMP180;9970;-36.854;174.870;2023-05-10T10:10:38;99780.00;;;13.00
19644;BMP180;9970;-36.854;174.870;2023-05-10T10:13:16;99765.00;;;13.00
19644;BMP180;9970;-36.854;174.870;2023-05-10T10:15:49;99759.00;;;13.00
19644;BMP180;9970;-36.854;174.870;2023-05-10T10:18:22;99756.00;;;13.00
19644;BMP180;9970;-36.854;174.870;2023-05-10T10:20:57;99765.00;;;13.00
19644;BMP180;9970;-36.854;174.870;2023-05-10T10:23:31;99758.00;;;13.00
19644;BMP180;9970;-36.854;174.870;2023-05-10T10:26:05;99730.00;;;13.00
19644;BMP180;9970;-36.854;174.870;2023-05-10T10:31:48;99740.00;;;13.00
19644;BMP180;9970;-36.854;174.870;2023-05-10T10:34:27;99726.00;;;13.00
19644;BMP180;9970;-36.854;174.870;2023-05-10T10:37:04;99734.00;;;13.00
19644;BMP180;9970;-36.854;174.870;2023-05-10T10:39:37;99748.00;;;13.00
19644;BMP180;9970;-36.854;174.870;2023-05-10T10:42:11;99726.00;;;13.00
19644;BMP180;9970;-36.854;174.870;2023-05-10T10:44:43;99718.00;;;13.10
19644;BMP180;9970;-36.854;174.870;2023-05-10T10:47:21;99717.00;;;13.10
19644;BMP180;9970;-36.854;174.870;2023-05-10T10:50:05;99703.00;;;13.10
19644;BMP180;9970;-36.854;174.870;2023-05-10T10:52:47;99705.00;;;13.10
19644;BMP180;9970;-36.854;174.870;2023-05-10T10:55:17;99699.00;;;13.10
19644;BMP180;9970;-36.854;174.870;2023-05-10T10:57:54;99710.00;;;13.10
19644;BMP180;9970;-36.854;174.870;2023-05-10T11:00:32;99713.00;;;13.00
19644;BMP180;9970;-36.854;174.870;2023-05-10T11:03:09;99703.00;;;13.00
19644;BMP180;9970;-36.854;174.870;2023-05-10T11:05:53;99714.00;;;13.00
19644;BMP180;9970;-36.854;174.870;2023-05-10T11:08:32;99711.00;;;13.00
19644;BMP180;9970;-36.854;174.870;2023-05-10T11:11:06;99709.00;;;13.00
19644;BMP180;9970;-36.854;174.870;2023-05-10T11:13:41;99699.00;;;13.00
19644;BMP180;9970;-36.854;174.870;2023-05-10T11:16:23;99699.00;;;13.00
19644;BMP180;9970;-36.854;174.870;2023-05-10T11:21:33;99697.00;;;13.00
19644;BMP180;9970;-36.854;174.870;2023-05-10T11:24:12;99710.00;;;13.00
19644;BMP180;9970;-36.854;174.870;2023-05-10T11:26:41;99703.00;;;13.00
19644;BMP180;9970;-36.854;174.870;2023-05-10T11:29:15;99690.00;;;13.00
19644;BMP180;9970;-36.854;174.870;2023-05-10T11:31:49;99702.00;;;13.00
19644;BMP180;9970;-36.854;174.870;2023-05-10T11:34:26;99696.00;;;13.00
19644;BMP180;9970;-36.854;174.870;2023-05-10T11:37:01;99694.00;;;13.00
19644;BMP180;9970;-36.854;174.870;2023-05-10T11:39:33;99686.00;;;13.00
19644;BMP180;9970;-36.854;174.870;2023-05-10T11:42:07;99682.00;;;13.00
19644;BMP180;9970;-36.854;174.870;2023-05-10T11:44:41;99676.00;;;13.00
19644;BMP180;9970;-36.854;174.870;2023-05-10T11:47:15;99665.00;;;13.00
19644;BMP180;9970;-36.854;174.870;2023-05-10T11:49:49;99676.00;;;13.00
19644;BMP180;9970;-36.854;174.870;2023-05-10T11:52:22;99673.00;;;13.00
19644;BMP180;9970;-36.854;174.870;2023-05-10T11:54:55;99663.00;;;13.00
19644;BMP180;9970;-36.854;174.870;2023-05-10T11:57:28;99675.00;;;13.10
19644;BMP180;9970;-36.854;174.870;2023-05-10T12:00:02;99675.00;;;13.00
19644;BMP180;9970;-36.854;174.870;2023-05-10T12:02:35;99669.00;;;13.00
19644;BMP180;9970;-36.854;174.870;2023-05-10T12:05:09;99671.00;;;13.10
19644;BMP180;9970;-36.854;174.870;2023-05-10T12:07:42;99682.00;;;13.10
19644;BMP180;9970;-36.854;174.870;2023-05-10T12:10:15;99676.00;;;13.10
19644;BMP180;9970;-36.854;174.870;2023-05-10T12:12:51;99682.00;;;13.10
19644;BMP180;9970;-36.854;174.870;2023-05-10T12:15:24;99680.00;;;13.10
19644;BMP180;9970;-36.854;174.870;2023-05-10T12:17:59;99674.00;;;13.10
19644;BMP180;9970;-36.854;174.870;2023-05-10T12:20:32;99678.00;;;13.10
19644;BMP180;9970;-36.854;174.870;2023-05-10T12:23:05;99677.00;;;13.10
19644;BMP180;9970;-36.854;174.870;2023-05-10T12:25:38;99659.00;;;13.10
19644;BMP180;9970;-36.854;174.870;2023-05-10T12:28:11;99658.00;;;13.10
19644;BMP180;9970;-36.854;174.870;2023-05-10T12:30:45;99664.00;;;13.20
19644;BMP180;9970;-36.854;174.870;2023-05-10T12:33:18;99659.00;;;13.20
19644;BMP180;9970;-36.854;174.870;2023-05-10T12:35:54;99665.00;;;13.20
19644;BMP180;9970;-36.854;174.870;2023-05-10T12:38:29;99666.00;;;13.20
19644;BMP180;9970;-36.854;174.870;2023-05-10T12:41:10;99664.00;;;13.20
19644;BMP180;9970;-36.854;174.870;2023-05-10T12:43:43;99661.00;;;13.20
19644;BMP180;9970;-36.854;174.870;2023-05-10T12:46:18;99670.00;;;13.20
19644;BMP180;9970;-36.854;174.870;2023-05-10T12:48:51;99666.00;;;13.20
19644;BMP180;9970;-36.854;174.870;2023-05-10T12:51:25;99684.00;;;13.20
19644;BMP180;9970;-36.854;174.870;2023-05-10T12:53:59;99741.00;;;13.30
19644;BMP180;9970;-36.854;174.870;2023-05-10T12:56:32;99764.00;;;13.20
19644;BMP180;9970;-36.854;174.870;2023-05-10T12:59:05;99750.00;;;13.10
19644;BMP180;9970;-36.854;174.870;2023-05-10T13:01:38;99729.00;;;13.00
19644;BMP180;9970;-36.854;174.870;2023-05-10T13:04:11;99718.00;;;13.00
19644;BMP180;9970;-36.854;174.870;2023-05-10T13:06:44;99713.00;;;12.90
19644;BMP180;9970;-36.854;174.870;2023-05-10T13:09:17;99722.00;;;12.90
19644;BMP180;9970;-36.854;174.870;2023-05-10T13:11:51;99737.00;;;12.80
19644;BMP180;9970;-36.854;174.870;2023-05-10T13:14:25;99745.00;;;12.80
19644;BMP180;9970;-36.854;174.870;2023-05-10T13:16:58;99761.00;;;12.70
19644;BMP180;9970;-36.854;174.870;2023-05-10T13:19:31;99776.00;;;12.60
19644;BMP180;9970;-36.854;174.870;2023-05-10T13:22:04;99756.00;;;12.60
19644;BMP180;9970;-36.854;174.870;2023-05-10T13:24:37;99754.00;;;12.60
19644;BMP180;9970;-36.854;174.870;2023-05-10T13:27:11;99748.00;;;12.60
19644;BMP180;9970;-36.854;174.870;2023-05-10T13:29:45;99733.00;;;12.60
19644;BMP180;9970;-36.854;174.870;2023-05-10T13:32:17;99730.00;;;12.60
19644;BMP180;9970;-36.854;174.870;2023-05-10T13:34:51;99729.00;;;12.50
19644;BMP180;9970;-36.854;174.870;2023-05-10T13:37:24;99724.00;;;12.50
19644;BMP180;9970;-36.854;174.870;2023-05-10T13:39:57;99715.00;;;12.50
19644;BMP180;9970;-36.854;174.870;2023-05-10T13:42:30;99704.00;;;12.50
19644;BMP180;9970;-36.854;174.870;2023-05-10T13:45:06;99679.00;;;12.50
19644;BMP180;9970;-36.854;174.870;2023-05-10T13:47:39;99671.00;;;12.50
19644;BMP180;9970;-36.854;174.870;2023-05-10T13:50:12;99666.00;;;12.50
19644;BMP180;9970;-36.854;174.870;2023-05-10T13:52:45;99656.00;;;12.50
19644;BMP180;9970;-36.854;174.870;2023-05-10T13:55:18;99666.00;;;12.50
19644;BMP180;9970;-36.854;174.870;2023-05-10T13:57:51;99668.00;;;12.40
19644;BMP180;9970;-36.854;174.870;2023-05-10T14:00:24;99677.00;;;12.40
19644;BMP180;9970;-36.854;174.870;2023-05-10T14:02:58;99678.00;;;12.40
19644;BMP180;9970;-36.854;174.870;2023-05-10T14:05:31;99669.00;;;12.40
19644;BMP180;9970;-36.854;174.870;2023-05-10T14:08:04;99675.00;;;12.40
19644;BMP180;9970;-36.854;174.870;2023-05-10T14:10:36;99680.00;;;12.40
19644;BMP180;9970;-36.854;174.870;2023-05-10T14:13:09;99679.00;;;12.40
19644;BMP180;9970;-36.854;174.870;2023-05-10T14:15:42;99670.00;;;12.40
19644;BMP180;9970;-36.854;174.870;2023-05-10T14:18:15;99668.00;;;12.40
19644;BMP180;9970;-36.854;174.870;2023-05-10T14:20:48;99680.00;;;12.40
19644;BMP180;9970;-36.854;174.870;2023-05-10T14:23:21;99683.00;;;12.40
19644;BMP180;9970;-36.854;174.870;2023-05-10T14:25:57;99683.00;;;12.40
19644;BMP180;9970;-36.854;174.870;2023-05-10T14:28:30;99690.00;;;12.40
19644;BMP180;9970;-36.854;174.870;2023-05-10T14:31:03;99690.00;;;12.40
19644;BMP180;9970;-36.854;174.870;2023-05-10T14:33:36;99683.00;;;12.40
19644;BMP180;9970;-36.854;174.870;2023-05-10T14:36:09;99684.00;;;12.40
19644;BMP180;9970;-36.854;174.870;2023-05-10T14:38:42;99686.00;;;12.40
19644;BMP180;9970;-36.854;174.870;2023-05-10T14:41:16;99685.00;;;12.40
19644;BMP180;9970;-36.854;174.870;2023-05-10T14:43:49;99675.00;;;12.40
19644;BMP180;9970;-36.854;174.870;2023-05-10T14:46:22;99682.00;;;12.50